sensor_id;sensor_type;location;lat;lon;timestamp;pressure;altitude;pressure_sealevel;temperature;humidity
18918;BME280;9591;52.742;13.650;2022-11-20T00:01:05;100669.69;;;0.75;100.00
18918;BME280;9591;52.742;13.650;2022-11-20T00:03:53;100661.06;;;0.84;100.00
18918;BME280;9591;52.742;13.650;2022-11-20T00:06:42;100662.81;;;0.85;100.00
18918;BME280;9591;52.742;13.650;2022-11-20T00:09:29;100660.16;;;0.77;100.00
18918;BME280;9591;52.742;13.650;2022-11-20T00:12:16;100661.00;;;0.73;100.00
18918;BME280;9591;52.742;13.650;2022-11-20T00:15:03;100667.13;;;0.80;100.00
18918;BME280;9591;52.742;13.650;2022-11-20T00:17:50;100665.38;;;0.77;100.00
18918;BME280;9591;52.742;13.650;2022-11-20T00:20:37;100658.38;;;0.72;100.00
18918;BME280;9591;52.742;13.650;2022-11-20T00:23:25;100657.50;;;0.70;100.00
18918;BME280;9591;52.742;13.650;2022-11-20T00:26:14;100663.53;;;0.62;100.00
18918;BME280;9591;52.742;13.650;2022-11-20T00:29:02;100660.09;;;0.70;100.00
18918;BME280;9591;52.742;13.650;2022-11-20T00:31:49;100658.34;;;0.65;100.00
18918;BME280;9591;52.742;13.650;2022-11-20T00:34:35;100655.72;;;0.62;100.00
18918;BME280;9591;52.742;13.650;2022-11-20T00:37:22;100662.75;;;0.76;100.00
18918;BME280;9591;52.742;13.650;2022-11-20T00:40:12;100655.72;;;0.64;100.00
18918;BME280;9591;52.742;13.650;2022-11-20T00:42:58;100668.78;;;0.69;100.00
18918;BME280;9591;52.742;13.650;2022-11-20T00:45:45;100666.94;;;0.55;100.00
18918;BME280;9591;52.742;13.650;2022-11-20T00:48:32;100658.34;;;0.69;100.00
18918;BME280;9591;52.742;13.650;2022-11-20T00:51:20;100669.63;;;0.66;100.00
18918;BME280;9591;52.742;13.650;2022-11-20T00:54:08;100666.19;;;0.69;100.00
18918;BME280;9591;52.742;13.650;2022-11-20T00:56:56;100675.81;;;0.79;100.00
18918;BME280;9591;52.742;13.650;2022-11-20T00:59:42;100669.69;;;0.74;100.00
18918;BME280;9591;52.742;13.650;2022-11-20T01:02:29;100665.28;;;0.67;100.00
18918;BME280;9591;52.742;13.650;2022-11-20T01:05:16;100664.41;;;0.66;100.00
18918;BME280;9591;52.742;13.650;2022-11-20T01:08:03;100664.38;;;0.60;100.00
18918;BME280;9591;52.742;13.650;2022-11-20T01:10:50;100660.09;;;0.68;100.00
18918;BME280;9591;52.742;13.650;2022-11-20T01:13:39;100667.00;;;0.64;100.00
18918;BME280;9591;52.742;13.650;2022-11-20T01:16:27;100649.66;;;0.67;100.00
18918;BME280;9591;52.742;13.650;2022-11-20T01:19:17;100653.13;;;0.65;100.00
18918;BME280;9591;52.742;13.650;2022-11-20T01:22:05;100660.84;;;0.52;100.00
18918;BME280;9591;52.742;13.650;2022-11-20T01:24:52;100659.13;;;0.55;100.00
18918;BME280;9591;52.742;13.650;2022-11-20T01:27:38;100649.59;;;0.57;100.00
18918;BME280;9591;52.742;13.650;2022-11-20T01:30:26;100657.38;;;0.54;100.00
18918;BME280;9591;52.742;13.650;2022-11-20T01:33:14;100653.84;;;0.45;100.00
18918;BME280;9591;52.742;13.650;2022-11-20T01:36:05;100635.63;;;0.49;100.00
18918;BME280;9591;52.742;13.650;2022-11-20T01:38:52;100653.81;;;0.42;100.00
18918;BME280;9591;52.742;13.650;2022-11-20T01:41:40;100646.94;;;0.50;100.00
18918;BME280;9591;52.742;13.650;2022-11-20T01:44:53;100653.81;;;0.43;100.00
18918;BME280;9591;52.742;13.650;2022-11-20T01:47:44;100653.81;;;0.42;100.00
18918;BME280;9591;52.742;13.650;2022-11-20T01:50:32;100646.06;;;0.49;100.00
18918;BME280;9591;52.742;13.650;2022-11-20T01:53:22;100653.84;;;0.45;100.00
18918;BME280;9591;52.742;13.650;2022-11-20T01:56:12;100652.88;;;0.33;100.00
18918;BME280;9591;52.742;13.650;2022-11-20T01:59:01;100645.16;;;0.44;100.00
18918;BME280;9591;52.742;13.650;2022-11-20T02:01:50;100651.19;;;0.40;100.00
18918;BME280;9591;52.742;13.650;2022-11-20T02:04:38;100650.28;;;0.33;100.00
18918;BME280;9591;52.742;13.650;2022-11-20T02:07:25;100638.03;;;0.25;100.00
18918;BME280;9591;52.742;13.650;2022-11-20T02:10:13;100646.00;;;0.42;100.00
18918;BME280;9591;52.742;13.650;2022-11-20T02:13:00;100640.88;;;0.55;100.00
18918;BME280;9591;52.742;13.650;2022-11-20T02:16:21;100630.47;;;0.55;100.00
18918;BME280;9591;52.742;13.650;2022-11-20T02:19:15;100628.66;;;0.48;100.00
18918;BME280;9591;52.742;13.650;2022-11-20T02:22:08;100584.16;;;0.18;100.00
18918;BME280;9591;52.742;13.650;2022-11-20T02:24:58;100636.34;;;0.28;100.00
18918;BME280;9591;52.742;13.650;2022-11-20T02:27:47;100636.34;;;0.31;100.00
18918;BME280;9591;52.742;13.650;2022-11-20T02:30:34;100628.59;;;0.39;100.00
18918;BME280;9591;52.742;13.650;2022-11-20T02:33:21;100624.19;;;0.30;100.00
18918;BME280;9591;52.742;13.650;2022-11-20T02:36:08;100628.47;;;0.24;100.00
18918;BME280;9591;52.742;13.650;2022-11-20T02:38:58;100630.31;;;0.37;100.00
18918;BME280;9591;52.742;13.650;2022-11-20T02:41:46;100629.44;;;0.37;100.00
18918;BME280;9591;52.742;13.650;2022-11-20T02:44:32;100622.47;;;0.32;100.00
18918;BME280;9591;52.742;13.650;2022-11-20T02:47:19;100620.81;;;0.42;100.00
18918;BME280;9591;52.742;13.650;2022-11-20T02:50:06;100621.78;;;0.56;100.00
18918;BME280;9591;52.742;13.650;2022-11-20T02:52:53;100628.63;;;0.44;100.00
18918;BME280;9591;52.742;13.650;2022-11-20T02:55:40;100622.63;;;0.54;100.00
18918;BME280;9591;52.742;13.650;2022-11-20T02:58:28;100626.03;;;0.44;100.00
18918;BME280;9591;52.742;13.650;2022-11-20T03:01:15;100617.34;;;0.43;100.00
18918;BME280;9591;52.742;13.650;2022-11-20T03:04:02;100624.38;;;0.53;100.00
18918;BME280;9591;52.742;13.650;2022-11-20T03:06:49;100631.31;;;0.54;100.00
18918;BME280;9591;52.742;13.650;2022-11-20T03:09:36;100629.56;;;0.50;100.00
18918;BME280;9591;52.742;13.650;2022-11-20T03:12:22;100626.91;;;0.44;100.00
18918;BME280;9591;52.742;13.650;2022-11-20T03:15:11;100632.84;;;0.26;100.00
18918;BME280;9591;52.742;13.650;2022-11-20T03:17:57;100619.72;;;0.16;100.00
18918;BME280;9591;52.742;13.650;2022-11-20T03:20:44;100631.91;;;0.17;100.00
18918;BME280;9591;52.742;13.650;2022-11-20T03:23:32;100631.03;;;0.18;100.00
18918;BME280;9591;52.742;13.650;2022-11-20T03:26:21;100625.91;;;0.27;100.00
18918;BME280;9591;52.742;13.650;2022-11-20T03:29:08;100616.41;;;0.33;100.00
18918;BME280;9591;52.742;13.650;2022-11-20T03:31:56;100612.91;;;0.30;100.00
18918;BME280;9591;52.742;13.650;2022-11-20T03:34:43;100610.19;;;0.16;100.00
18918;BME280;9591;52.742;13.650;2022-11-20T03:37:29;100605.13;;;0.35;100.00
18918;BME280;9591;52.742;13.650;2022-11-20T03:40:16;100610.25;;;0.25;100.00
18918;BME280;9591;52.742;13.650;2022-11-20T03:43:03;100603.25;;;0.17;100.00
18918;BME280;9591;52.742;13.650;2022-11-20T03:45:49;100598.09;;;0.24;100.00
18918;BME280;9591;52.742;13.650;2022-11-20T03:48:38;100603.34;;;0.29;100.00
18918;BME280;9591;52.742;13.650;2022-11-20T03:51:26;100601.59;;;0.29;100.00
18918;BME280;9591;52.742;13.650;2022-11-20T03:54:13;100599.91;;;0.33;100.00
18918;BME280;9591;52.742;13.650;2022-11-20T03:57:00;100603.44;;;0.41;100.00
18918;BME280;9591;52.742;13.650;2022-11-20T03:59:46;100598.13;;;0.29;100.00
18918;BME280;9591;52.742;13.650;2022-11-20T04:02:33;100604.13;;;0.19;100.00
18918;BME280;9591;52.742;13.650;2022-11-20T04:05:21;100594.69;;;0.33;100.00
18918;BME280;9591;52.742;13.650;2022-11-20T04:08:08;100589.50;;;0.35;100.00
18918;BME280;9591;52.742;13.650;2022-11-20T04:10:55;100592.06;;;0.30;100.00
18918;BME280;9591;52.742;13.650;2022-11-20T04:13:45;100594.69;;;0.35;100.00
18918;BME280;9591;52.742;13.650;2022-11-20T04:16:34;100595.56;;;0.33;100.00
18918;BME280;9591;52.742;13.650;2022-11-20T04:19:21;100606.69;;;0.14;100.00
18918;BME280;9591;52.742;13.650;2022-11-20T04:22:09;100602.50;;;0.33;100.00
18918;BME280;9591;52.742;13.650;2022-11-20T04:24:57;100604.13;;;0.19;100.00
18918;BME280;9591;52.742;13.650;2022-11-20T04:27:43;100593.84;;;0.37;100.00
18918;BME280;9591;52.742;13.650;2022-11-20T04:30:30;100588.63;;;0.36;100.00
18918;BME280;9591;52.742;13.650;2022-11-20T04:33:17;100588.56;;;0.28;100.00
18918;BME280;9591;52.742;13.650;2022-11-20T04:36:06;100594.56;;;0.18;100.00
18918;BME280;9591;52.742;13.650;2022-11-20T04:38:56;100592.91;;;0.26;100.00
18918;BME280;9591;52.742;13.650;2022-11-20T04:41:43;100585.00;;;0.14;100.00
18918;BME280;9591;52.742;13.650;2022-11-20T04:44:30;100585.13;;;0.32;100.00
18918;BME280;9591;52.742;13.650;2022-11-20T04:47:17;100588.41;;;0.07;100.00
18918;BME280;9591;52.742;13.650;2022-11-20T04:50:04;100585.91;;;0.22;100.00
18918;BME280;9591;52.742;13.650;2022-11-20T04:52:51;100577.22;;;0.21;100.00
18918;BME280;9591;52.742;13.650;2022-11-20T04:55:39;100590.25;;;0.20;100.00
18918;BME280;9591;52.742;13.650;2022-11-20T04:58:26;100591.09;;;0.19;100.00
18918;BME280;9591;52.742;13.650;2022-11-20T05:01:14;100599.78;;;0.19;100.00
18918;BME280;9591;52.742;13.650;2022-11-20T05:04:01;100587.59;;;0.15;100.00
18918;BME280;9591;52.742;13.650;2022-11-20T05:06:49;100591.94;;;0.15;100.00
18918;BME280;9591;52.742;13.650;2022-11-20T05:09:35;100591.03;;;0.08;100.00
18918;BME280;9591;52.742;13.650;2022-11-20T05:12:24;100579.72;;;0.08;100.00
18918;BME280;9591;52.742;13.650;2022-11-20T05:15:10;100584.06;;;0.07;100.00
18918;BME280;9591;52.742;13.650;2022-11-20T05:17:57;100566.72;;;0.09;100.00
18918;BME280;9591;52.742;13.650;2022-11-20T05:20:44;100571.09;;;0.12;100.00
18918;BME280;9591;52.742;13.650;2022-11-20T05:23:32;100570.25;;;0.16;100.00
18918;BME280;9591;52.742;13.650;2022-11-20T05:26:21;100569.41;;;0.18;100.00
18918;BME280;9591;52.742;13.650;2022-11-20T05:29:10;100565.88;;;0.12;100.00
18918;BME280;9591;52.742;13.650;2022-11-20T05:31:58;100559.81;;;0.16;100.00
18918;BME280;9591;52.742;13.650;2022-11-20T05:34:46;100567.56;;;0.07;100.00
18918;BME280;9591;52.742;13.650;2022-11-20T05:37:33;100564.25;;;0.26;100.00
18918;BME280;9591;52.742;13.650;2022-11-20T05:40:19;100564.25;;;0.26;100.00
18918;BME280;9591;52.742;13.650;2022-11-20T05:43:06;100561.47;;;0.05;100.00
18918;BME280;9591;52.742;13.650;2022-11-20T05:45:54;100561.47;;;-0.02;100.00
18918;BME280;9591;52.742;13.650;2022-11-20T05:48:42;100564.91;;;-0.06;100.00
18918;BME280;9591;52.742;13.650;2022-11-20T05:51:29;100562.28;;;-0.06;100.00
18918;BME280;9591;52.742;13.650;2022-11-20T05:54:16;100551.13;;;0.14;100.00
18918;BME280;9591;52.742;13.650;2022-11-20T05:57:03;100551.91;;;0.04;100.00
18918;BME280;9591;52.742;13.650;2022-11-20T05:59:50;100557.22;;;0.17;100.00
18918;BME280;9591;52.742;13.650;2022-11-20T06:02:38;100545.81;;;-0.03;100.00
18918;BME280;9591;52.742;13.650;2022-11-20T06:05:25;100559.84;;;0.19;100.00
18918;BME280;9591;52.742;13.650;2022-11-20T06:08:11;100555.41;;;0.07;100.00
18918;BME280;9591;52.742;13.650;2022-11-20T06:11:03;100553.69;;;0.09;100.00
18918;BME280;9591;52.742;13.650;2022-11-20T06:13:50;100547.56;;;0.01;100.00
18918;BME280;9591;52.742;13.650;2022-11-20T06:16:37;100556.19;;;-0.11;100.00
18918;BME280;9591;52.742;13.650;2022-11-20T06:19:25;100550.22;;;0.09;100.00
18918;BME280;9591;52.742;13.650;2022-11-20T06:22:12;100546.75;;;0.07;100.00
18918;BME280;9591;52.742;13.650;2022-11-20T06:24:58;100553.69;;;0.08;100.00
18918;BME280;9591;52.742;13.650;2022-11-20T06:27:45;100557.13;;;0.04;100.00
18918;BME280;9591;52.742;13.650;2022-11-20T06:30:46;100544.88;;;-0.13;100.00
18918;BME280;9591;52.742;13.650;2022-11-20T06:33:33;100557.09;;;-0.06;100.00
18918;BME280;9591;52.742;13.650;2022-11-20T06:36:23;100547.53;;;-0.07;100.00
18918;BME280;9591;52.742;13.650;2022-11-20T06:39:12;100547.41;;;-0.20;100.00
18918;BME280;9591;52.742;13.650;2022-11-20T06:41:59;100547.56;;;0.01;100.00
18918;BME280;9591;52.742;13.650;2022-11-20T06:44:45;100545.78;;;-0.08;100.00
18918;BME280;9591;52.742;13.650;2022-11-20T06:47:32;100550.94;;;-0.15;100.00
18918;BME280;9591;52.742;13.650;2022-11-20T06:50:19;100545.78;;;-0.08;100.00
18918;BME280;9591;52.742;13.650;2022-11-20T06:53:07;100556.97;;;-0.21;100.00
18918;BME280;9591;52.742;13.650;2022-11-20T06:55:56;100538.00;;;-0.05;100.00
18918;BME280;9591;52.742;13.650;2022-11-20T06:58:43;100543.25;;;0.05;100.00
18918;BME280;9591;52.742;13.650;2022-11-20T07:01:30;100548.47;;;0.05;100.00
18918;BME280;9591;52.742;13.650;2022-11-20T07:04:16;100538.91;;;0.05;100.00
18918;BME280;9591;52.742;13.650;2022-11-20T07:07:03;100546.75;;;0.07;100.00
18918;BME280;9591;52.742;13.650;2022-11-20T07:09:52;100540.72;;;0.15;100.00
18918;BME280;9591;52.742;13.650;2022-11-20T07:12:39;100547.56;;;0.01;100.00
18918;BME280;9591;52.742;13.650;2022-11-20T07:15:26;100548.63;;;0.27;100.00
18918;BME280;9591;52.742;13.650;2022-11-20T07:18:13;100545.97;;;0.18;100.00
18918;BME280;9591;52.742;13.650;2022-11-20T07:21:00;100554.69;;;0.25;100.00
18918;BME280;9591;52.742;13.650;2022-11-20T07:23:47;100550.31;;;0.21;100.00
18918;BME280;9591;52.742;13.650;2022-11-20T07:26:35;100546.00;;;0.23;100.00
18918;BME280;9591;52.742;13.650;2022-11-20T07:29:21;100547.78;;;0.30;100.00
18918;BME280;9591;52.742;13.650;2022-11-20T07:32:08;100550.41;;;0.33;100.00
18918;BME280;9591;52.742;13.650;2022-11-20T07:34:55;100546.97;;;0.39;100.00
18918;BME280;9591;52.742;13.650;2022-11-20T07:37:42;100546.13;;;0.44;100.00
18918;BME280;9591;52.742;13.650;2022-11-20T07:40:31;100538.25;;;0.35;100.00
18918;BME280;9591;52.742;13.650;2022-11-20T07:43:19;100541.81;;;0.51;100.00
18918;BME280;9591;52.742;13.650;2022-11-20T07:46:05;100540.09;;;0.54;100.00
18918;BME280;9591;52.742;13.650;2022-11-20T07:48:52;100539.25;;;0.60;100.00
18918;BME280;9591;52.742;13.650;2022-11-20T07:51:39;100541.88;;;0.58;100.00
18918;BME280;9591;52.742;13.650;2022-11-20T07:54:26;100545.25;;;0.45;100.00
18918;BME280;9591;52.742;13.650;2022-11-20T07:57:12;100541.81;;;0.49;100.00
18918;BME280;9591;52.742;13.650;2022-11-20T08:00:01;100534.97;;;0.70;100.00
18918;BME280;9591;52.742;13.650;2022-11-20T08:02:56;100537.56;;;0.68;100.00
18918;BME280;9591;52.742;13.650;2022-11-20T08:05:43;100539.38;;;0.80;100.00
18918;BME280;9591;52.742;13.650;2022-11-20T08:08:30;100505.41;;;0.66;100.00
18918;BME280;9591;52.742;13.650;2022-11-20T08:11:18;100532.41;;;0.89;100.00
18918;BME280;9591;52.742;13.650;2022-11-20T08:14:21;100517.66;;;0.91;100.00
18918;BME280;9591;52.742;13.650;2022-11-20T08:17:09;100535.97;;;1.14;100.00
18918;BME280;9591;52.742;13.650;2022-11-20T08:19:56;100529.88;;;1.09;100.00
18918;BME280;9591;52.742;13.650;2022-11-20T08:22:42;100528.13;;;1.07;100.00
18918;BME280;9591;52.742;13.650;2022-11-20T08:25:30;100473.34;;;0.97;100.00
18918;BME280;9591;52.742;13.650;2022-11-20T08:28:17;100523.81;;;1.16;100.00
18918;BME280;9591;52.742;13.650;2022-11-20T08:31:06;100516.91;;;1.29;100.00
18918;BME280;9591;52.742;13.650;2022-11-20T08:33:54;100515.13;;;1.22;100.00
18918;BME280;9591;52.742;13.650;2022-11-20T08:36:41;100524.72;;;1.34;100.00
18918;BME280;9591;52.742;13.650;2022-11-20T08:39:28;100509.94;;;1.26;100.00
18918;BME280;9591;52.742;13.650;2022-11-20T08:42:14;100520.38;;;1.34;100.00
18918;BME280;9591;52.742;13.650;2022-11-20T08:45:01;100518.66;;;1.39;100.00
18918;BME280;9591;52.742;13.650;2022-11-20T08:47:48;100519.56;;;1.58;100.00
18918;BME280;9591;52.742;13.650;2022-11-20T08:50:36;100512.59;;;1.57;100.00
18918;BME280;9591;52.742;13.650;2022-11-20T08:53:24;100516.94;;;1.53;100.00
18918;BME280;9591;52.742;13.650;2022-11-20T08:56:11;100506.50;;;1.64;100.00
18918;BME280;9591;52.742;13.650;2022-11-20T08:58:57;100509.97;;;1.54;100.00
18918;BME280;9591;52.742;13.650;2022-11-20T09:02:05;100507.38;;;1.57;100.00
18918;BME280;9591;52.742;13.650;2022-11-20T09:04:52;100503.91;;;1.64;100.00
18918;BME280;9591;52.742;13.650;2022-11-20T09:07:40;100496.03;;;1.38;100.00
18918;BME280;9591;52.742;13.650;2022-11-20T09:10:27;100478.66;;;1.42;100.00
18918;BME280;9591;52.742;13.650;2022-11-20T09:13:14;100492.56;;;1.51;100.00
18918;BME280;9591;52.742;13.650;2022-11-20T09:16:02;100509.97;;;1.77;100.00
18918;BME280;9591;52.742;13.650;2022-11-20T09:18:50;100516.94;;;1.88;100.00
18918;BME280;9591;52.742;13.650;2022-11-20T09:21:57;100521.28;;;1.77;100.00
18918;BME280;9591;52.742;13.650;2022-11-20T09:24:46;100518.66;;;1.76;100.00
18918;BME280;9591;52.742;13.650;2022-11-20T09:27:33;100510.84;;;1.68;100.00
18918;BME280;9591;52.742;13.650;2022-11-20T09:30:21;100519.56;;;1.59;100.00
18918;BME280;9591;52.742;13.650;2022-11-20T09:33:07;100518.69;;;1.62;100.00
18918;BME280;9591;52.742;13.650;2022-11-20T09:35:54;100513.47;;;1.68;100.00
18918;BME280;9591;52.742;13.650;2022-11-20T09:38:41;100518.69;;;1.67;100.00
18918;BME280;9591;52.742;13.650;2022-11-20T09:45:16;100513.47;;;1.59;100.00
18918;BME280;9591;52.742;13.650;2022-11-20T09:48:18;100507.34;;;1.48;100.00
18918;BME280;9591;52.742;13.650;2022-11-20T09:51:16;100503.88;;;1.58;100.00
18918;BME280;9591;52.742;13.650;2022-11-20T09:54:15;100441.22;;;1.37;100.00
18918;BME280;9591;52.742;13.650;2022-11-20T09:57:05;100491.69;;;1.75;100.00
18918;BME280;9591;52.742;13.650;2022-11-20T09:59:59;100492.56;;;1.83;100.00
18918;BME280;9591;52.742;13.650;2022-11-20T10:03:01;100487.31;;;1.89;100.00
18918;BME280;9591;52.742;13.650;2022-11-20T10:05:53;100481.22;;;2.06;100.00
18918;BME280;9591;52.742;13.650;2022-11-20T10:08:43;100475.13;;;1.99;100.00
18918;BME280;9591;52.742;13.650;2022-11-20T10:11:38;100469.91;;;1.99;100.00
18918;BME280;9591;52.742;13.650;2022-11-20T10:14:37;100469.00;;;2.11;100.00
18918;BME280;9591;52.742;13.650;2022-11-20T10:17:40;100469.00;;;2.18;100.00
18918;BME280;9591;52.742;13.650;2022-11-20T10:20:42;100469.88;;;2.14;100.00
18918;BME280;9591;52.742;13.650;2022-11-20T10:23:40;100466.38;;;2.24;100.00
18918;BME280;9591;52.742;13.650;2022-11-20T10:26:37;100466.38;;;2.24;100.00
18918;BME280;9591;52.742;13.650;2022-11-20T10:29:29;100462.06;;;2.07;100.00
18918;BME280;9591;52.742;13.650;2022-11-20T10:32:24;100462.91;;;2.12;100.00
18918;BME280;9591;52.742;13.650;2022-11-20T10:35:21;100467.25;;;2.19;100.00
18918;BME280;9591;52.742;13.650;2022-11-20T10:38:14;100442.03;;;1.93;100.00
18918;BME280;9591;52.742;13.650;2022-11-20T10:41:05;100467.31;;;1.88;100.00
18918;BME280;9591;52.742;13.650;2022-11-20T10:44:13;100362.94;;;1.37;100.00
18918;BME280;9591;52.742;13.650;2022-11-20T10:47:22;100466.47;;;1.68;100.00
18918;BME280;9591;52.742;13.650;2022-11-20T10:50:11;100454.25;;;1.76;100.00
18918;BME280;9591;52.742;13.650;2022-11-20T10:53:18;100450.75;;;1.97;100.00
18918;BME280;9591;52.742;13.650;2022-11-20T10:56:14;100447.25;;;2.04;100.00
18918;BME280;9591;52.742;13.650;2022-11-20T11:02:18;100457.72;;;1.87;100.00
18918;BME280;9591;52.742;13.650;2022-11-20T11:05:12;100453.38;;;1.86;100.00
18918;BME280;9591;52.742;13.650;2022-11-20T11:08:04;100457.72;;;1.75;100.00
18918;BME280;9591;52.742;13.650;2022-11-20T11:10:57;100453.38;;;1.86;100.00
18918;BME280;9591;52.742;13.650;2022-11-20T11:13:43;100450.78;;;1.79;100.00
18918;BME280;9591;52.742;13.650;2022-11-20T11:16:30;100457.78;;;1.69;100.00
18918;BME280;9591;52.742;13.650;2022-11-20T11:19:17;100450.81;;;1.67;100.00
18918;BME280;9591;52.742;13.650;2022-11-20T11:22:10;100454.28;;;1.73;100.00
18918;BME280;9591;52.742;13.650;2022-11-20T11:25:02;100443.78;;;1.90;100.00
18918;BME280;9591;52.742;13.650;2022-11-20T11:27:50;100449.00;;;1.96;100.00
18918;BME280;9591;52.742;13.650;2022-11-20T11:30:43;100441.19;;;1.88;100.00
18918;BME280;9591;52.742;13.650;2022-11-20T11:33:31;100437.72;;;1.77;100.00
18918;BME280;9591;52.742;13.650;2022-11-20T11:36:22;100437.75;;;1.63;100.00
18918;BME280;9591;52.742;13.650;2022-11-20T11:39:15;100437.75;;;1.68;100.00
18918;BME280;9591;52.742;13.650;2022-11-20T11:42:02;100429.94;;;1.63;100.00
18918;BME280;9591;52.742;13.650;2022-11-20T11:44:49;100422.97;;;1.66;100.00
18918;BME280;9591;52.742;13.650;2022-11-20T11:47:53;100428.19;;;1.49;100.00
18918;BME280;9591;52.742;13.650;2022-11-20T11:50:48;100429.06;;;1.42;100.00
18918;BME280;9591;52.742;13.650;2022-11-20T11:53:40;100433.41;;;1.26;100.00
18918;BME280;9591;52.742;13.650;2022-11-20T11:56:30;100422.97;;;1.27;100.00
18918;BME280;9591;52.742;13.650;2022-11-20T11:59:25;100428.16;;;1.20;100.00
18918;BME280;9591;52.742;13.650;2022-11-20T12:02:29;100431.63;;;1.04;100.00
18918;BME280;9591;52.742;13.650;2022-11-20T12:05:19;100427.28;;;1.04;100.00
18918;BME280;9591;52.742;13.650;2022-11-20T12:08:14;100414.22;;;0.96;100.00
18918;BME280;9591;52.742;13.650;2022-11-20T12:11:05;100416.81;;;0.89;100.00
18918;BME280;9591;52.742;13.650;2022-11-20T12:14:02;100417.69;;;0.83;100.00
18918;BME280;9591;52.742;13.650;2022-11-20T12:16:51;100421.16;;;0.78;100.00
18918;BME280;9591;52.742;13.650;2022-11-20T12:19:39;100420.31;;;0.97;100.00
18918;BME280;9591;52.742;13.650;2022-11-20T12:22:30;100385.50;;;0.64;100.00
18918;BME280;9591;52.742;13.650;2022-11-20T12:25:24;100416.84;;;0.98;100.00
18918;BME280;9591;52.742;13.650;2022-11-20T12:28:24;100407.28;;;0.97;100.00
18918;BME280;9591;52.742;13.650;2022-11-20T12:31:27;100403.81;;;1.10;100.00
18918;BME280;9591;52.742;13.650;2022-11-20T12:34:35;100399.47;;;1.18;100.00
18918;BME280;9591;52.742;13.650;2022-11-20T12:37:33;100394.25;;;1.41;100.00
18918;BME280;9591;52.742;13.650;2022-11-20T12:40:28;100398.59;;;1.35;100.00
18918;BME280;9591;52.742;13.650;2022-11-20T12:43:21;100394.25;;;1.40;100.00
18918;BME280;9591;52.742;13.650;2022-11-20T12:46:33;100391.66;;;1.32;100.00
18918;BME280;9591;52.742;13.650;2022-11-20T12:49:30;100396.00;;;1.45;100.00
18918;BME280;9591;52.742;13.650;2022-11-20T12:52:33;100400.34;;;1.37;100.00
18918;BME280;9591;52.742;13.650;2022-11-20T12:55:28;100396.00;;;1.31;100.00
18918;BME280;9591;52.742;13.650;2022-11-20T12:58:24;100394.25;;;1.37;100.00
18918;BME280;9591;52.742;13.650;2022-11-20T13:01:21;100395.13;;;1.20;100.00
18918;BME280;9591;52.742;13.650;2022-11-20T13:04:51;100396.88;;;1.30;100.00
18918;BME280;9591;52.742;13.650;2022-11-20T13:07:47;100397.72;;;1.23;100.00
18918;BME280;9591;52.742;13.650;2022-11-20T13:10:38;100394.25;;;1.20;100.00
18918;BME280;9591;52.742;13.650;2022-11-20T13:13:33;100395.13;;;1.23;100.00
18918;BME280;9591;52.742;13.650;2022-11-20T13:16:26;100392.50;;;1.17;100.00
18918;BME280;9591;52.742;13.650;2022-11-20T13:19:18;100392.50;;;1.11;100.00
18918;BME280;9591;52.742;13.650;2022-11-20T13:22:08;100396.00;;;1.10;100.00
18918;BME280;9591;52.742;13.650;2022-11-20T13:24:54;100386.44;;;1.15;100.00
18918;BME280;9591;52.742;13.650;2022-11-20T13:27:47;100387.28;;;1.16;100.00
18918;BME280;9591;52.742;13.650;2022-11-20T13:30:34;100301.22;;;0.56;100.00
18918;BME280;9591;52.742;13.650;2022-11-20T13:33:25;100379.47;;;1.20;100.00
18918;BME280;9591;52.742;13.650;2022-11-20T13:36:21;100352.50;;;0.97;100.00
18918;BME280;9591;52.742;13.650;2022-11-20T13:39:10;100376.00;;;1.15;100.00
18918;BME280;9591;52.742;13.650;2022-11-20T13:41:58;100377.72;;;1.12;100.00
18918;BME280;9591;52.742;13.650;2022-11-20T13:44:48;100374.25;;;1.20;100.00
18918;BME280;9591;52.742;13.650;2022-11-20T13:47:37;100379.47;;;1.11;100.00
18918;BME280;9591;52.742;13.650;2022-11-20T13:50:42;100377.72;;;1.16;100.00
18918;BME280;9591;52.742;13.650;2022-11-20T13:53:48;100370.78;;;1.17;100.00
18918;BME280;9591;52.742;13.650;2022-11-20T13:56:53;100374.25;;;1.16;100.00
18918;BME280;9591;52.742;13.650;2022-11-20T13:59:51;100370.78;;;1.12;100.00
18918;BME280;9591;52.742;13.650;2022-11-20T14:02:41;100359.47;;;1.01;100.00
18918;BME280;9591;52.742;13.650;2022-11-20T14:05:31;100357.72;;;0.94;100.00
18918;BME280;9591;52.742;13.650;2022-11-20T14:08:27;100369.91;;;1.07;100.00
18918;BME280;9591;52.742;13.650;2022-11-20T14:11:17;100357.72;;;1.11;100.00
18918;BME280;9591;52.742;13.650;2022-11-20T14:14:15;100376.84;;;1.14;100.00
18918;BME280;9591;52.742;13.650;2022-11-20T14:17:07;100375.09;;;0.93;100.00
18918;BME280;9591;52.742;13.650;2022-11-20T14:19:57;100372.50;;;1.12;100.00
18918;BME280;9591;52.742;13.650;2022-11-20T14:22:48;100375.13;;;1.13;100.00
18918;BME280;9591;52.742;13.650;2022-11-20T14:25:35;100369.03;;;0.85;100.00
18918;BME280;9591;52.742;13.650;2022-11-20T14:28:26;100369.03;;;0.85;100.00
18918;BME280;9591;52.742;13.650;2022-11-20T14:31:22;100361.19;;;0.99;100.00
18918;BME280;9591;52.742;13.650;2022-11-20T14:34:13;100361.22;;;0.84;100.00
18918;BME280;9591;52.742;13.650;2022-11-20T14:37:04;100367.28;;;0.75;100.00
18918;BME280;9591;52.742;13.650;2022-11-20T14:39:58;100360.34;;;0.85;100.00
18918;BME280;9591;52.742;13.650;2022-11-20T14:42:46;100368.16;;;0.97;100.00
18918;BME280;9591;52.742;13.650;2022-11-20T14:45:32;100360.34;;;0.85;100.00
18918;BME280;9591;52.742;13.650;2022-11-20T14:48:24;100356.88;;;0.84;100.00
18918;BME280;9591;52.742;13.650;2022-11-20T14:51:23;100362.94;;;0.82;100.00
18918;BME280;9591;52.742;13.650;2022-11-20T14:54:14;100358.59;;;0.91;100.00
18918;BME280;9591;52.742;13.650;2022-11-20T14:57:03;100356.84;;;0.98;100.00